sensor_id;sensor_type;location;lat;lon;timestamp;pressure;altitude;pressure_sealevel;temperature;humidity
75692;BME280;64307;52.508;6.090;2022-10-17T00:00:33;101719.84;;;14.01;88.76
75692;BME280;64307;52.508;6.090;2022-10-17T00:02:59;101725.03;;;13.88;89.57
75692;BME280;64307;52.508;6.090;2022-10-17T00:05:24;101714.22;;;13.90;89.21
75692;BME280;64307;52.508;6.090;2022-10-17T00:07:50;101718.25;;;13.93;88.91
75692;BME280;64307;52.508;6.090;2022-10-17T00:10:16;101720.22;;;13.96;89.17
75692;BME280;64307;52.508;6.090;2022-10-17T00:12:41;101716.63;;;13.88;89.37
75692;BME280;64307;52.508;6.090;2022-10-17T00:15:07;101715.03;;;13.80;89.79
75692;BME280;64307;52.508;6.090;2022-10-17T00:17:33;101716.59;;;13.81;89.55
75692;BME280;64307;52.508;6.090;2022-10-17T00:19:59;101706.22;;;13.78;89.78
75692;BME280;64307;52.508;6.090;2022-10-17T00:22:25;101707.81;;;13.76;89.92
75692;BME280;64307;52.508;6.090;2022-10-17T00:24:50;101714.19;;;13.69;90.38
75692;BME280;64307;52.508;6.090;2022-10-17T00:27:16;101700.19;;;13.66;90.68
75692;BME280;64307;52.508;6.090;2022-10-17T00:29:41;101686.19;;;13.69;90.58
75692;BME280;64307;52.508;6.090;2022-10-17T00:32:06;101688.97;;;13.59;91.26
75692;BME280;64307;52.508;6.090;2022-10-17T00:34:32;101685.38;;;13.62;91.39
75692;BME280;64307;52.508;6.090;2022-10-17T00:36:57;101681.78;;;13.54;91.89
75692;BME280;64307;52.508;6.090;2022-10-17T00:39:22;101683.00;;;13.64;91.50
75692;BME280;64307;52.508;6.090;2022-10-17T00:41:48;101685.41;;;13.58;91.70
75692;BME280;64307;52.508;6.090;2022-10-17T00:46:54;101688.59;;;13.60;91.83
75692;BME280;64307;52.508;6.090;2022-10-17T00:49:21;101689.38;;;13.50;92.22
75692;BME280;64307;52.508;6.090;2022-10-17T00:51:56;101689.78;;;13.52;92.44
75692;BME280;64307;52.508;6.090;2022-10-17T00:54:24;101689.34;;;13.43;92.96
75692;BME280;64307;52.508;6.090;2022-10-17T00:56:51;101687.75;;;13.42;92.60
75692;BME280;64307;52.508;6.090;2022-10-17T00:59:19;101694.53;;;13.45;92.91
75692;BME280;64307;52.508;6.090;2022-10-17T01:01:59;101697.31;;;13.34;93.20
75692;BME280;64307;52.508;6.090;2022-10-17T01:04:29;101694.91;;;13.29;93.24
75692;BME280;64307;52.508;6.090;2022-10-17T01:06:54;101690.13;;;13.30;93.21
75692;BME280;64307;52.508;6.090;2022-10-17T01:09:19;101683.31;;;13.34;93.07
75692;BME280;64307;52.508;6.090;2022-10-17T01:11:58;101678.94;;;13.30;93.68
75692;BME280;64307;52.508;6.090;2022-10-17T01:14:39;101685.78;;;13.46;93.47
75692;BME280;64307;52.508;6.090;2022-10-17T01:17:18;101677.34;;;13.39;93.65
75692;BME280;64307;52.508;6.090;2022-10-17T01:20:25;101670.53;;;13.33;93.75
75692;BME280;64307;52.508;6.090;2022-10-17T01:23:11;101666.53;;;13.34;93.89
75692;BME280;64307;52.508;6.090;2022-10-17T01:25:49;101660.94;;;13.34;93.93
75692;BME280;64307;52.508;6.090;2022-10-17T01:31:14;101662.13;;;13.30;94.47
75692;BME280;64307;52.508;6.090;2022-10-17T01:33:58;101674.50;;;13.29;94.56
75692;BME280;64307;52.508;6.090;2022-10-17T01:39:24;101672.53;;;13.29;94.26
75692;BME280;64307;52.508;6.090;2022-10-17T01:42:03;101670.97;;;13.42;93.78
75692;BME280;64307;52.508;6.090;2022-10-17T01:44:43;101661.78;;;13.42;94.06
75692;BME280;64307;52.508;6.090;2022-10-17T01:47:14;101663.34;;;13.39;94.69
75692;BME280;64307;52.508;6.090;2022-10-17T01:49:44;101651.75;;;13.37;94.50
75692;BME280;64307;52.508;6.090;2022-10-17T01:52:13;101660.56;;;13.39;94.73
75692;BME280;64307;52.508;6.090;2022-10-17T01:54:44;101639.78;;;13.44;94.50
75692;BME280;64307;52.508;6.090;2022-10-17T01:57:19;101635.81;;;13.48;94.12
75692;BME280;64307;52.508;6.090;2022-10-17T01:59:46;101636.19;;;13.43;94.54
75692;BME280;64307;52.508;6.090;2022-10-17T02:02:14;101627.00;;;13.46;94.57
75692;BME280;64307;52.508;6.090;2022-10-17T02:04:41;101626.97;;;13.39;94.94
75692;BME280;64307;52.508;6.090;2022-10-17T02:07:11;101625.38;;;13.45;94.67
75692;BME280;64307;52.508;6.090;2022-10-17T02:09:37;101630.97;;;13.45;94.63
75692;BME280;64307;52.508;6.090;2022-10-17T02:18:06;101627.81;;;13.50;94.65
75692;BME280;64307;52.508;6.090;2022-10-17T02:21:12;101621.41;;;13.53;94.66
75692;BME280;64307;52.508;6.090;2022-10-17T02:23:54;101621.41;;;13.53;95.14
75692;BME280;64307;52.508;6.090;2022-10-17T02:26:25;101619.41;;;13.68;94.52
75692;BME280;64307;52.508;6.090;2022-10-17T02:29:02;101608.19;;;13.61;94.77
75692;BME280;64307;52.508;6.090;2022-10-17T02:31:37;101607.44;;;13.60;94.95
75692;BME280;64307;52.508;6.090;2022-10-17T02:34:08;101592.22;;;13.58;95.00
75692;BME280;64307;52.508;6.090;2022-10-17T02:36:44;101581.81;;;13.51;95.06
75692;BME280;64307;52.508;6.090;2022-10-17T02:39:11;101580.63;;;13.52;95.80
75692;BME280;64307;52.508;6.090;2022-10-17T02:41:39;101579.41;;;13.57;95.27
75692;BME280;64307;52.508;6.090;2022-10-17T02:44:07;101579.81;;;13.59;95.24
75692;BME280;64307;52.508;6.090;2022-10-17T02:46:34;101575.41;;;13.61;94.92
75692;BME280;64307;52.508;6.090;2022-10-17T02:49:12;101574.25;;;13.62;95.47
75692;BME280;64307;52.508;6.090;2022-10-17T02:51:44;101571.03;;;13.60;95.19
75692;BME280;64307;52.508;6.090;2022-10-17T02:54:26;101573.81;;;13.64;95.22
75692;BME280;64307;52.508;6.090;2022-10-17T02:56:55;101575.81;;;13.63;95.55
75692;BME280;64307;52.508;6.090;2022-10-17T02:59:24;101579.03;;;13.65;95.60
75692;BME280;64307;52.508;6.090;2022-10-17T03:01:51;101579.41;;;13.67;95.84
75692;BME280;64307;52.508;6.090;2022-10-17T03:04:17;101581.44;;;13.60;96.23
75692;BME280;64307;52.508;6.090;2022-10-17T03:06:45;101583.81;;;13.58;96.09
75692;BME280;64307;52.508;6.090;2022-10-17T03:09:11;101589.84;;;13.67;96.24
75692;BME280;64307;52.508;6.090;2022-10-17T03:11:36;101587.44;;;13.72;96.18
75692;BME280;64307;52.508;6.090;2022-10-17T03:14:02;101583.03;;;13.75;96.09
75692;BME280;64307;52.508;6.090;2022-10-17T03:16:27;101576.22;;;13.79;95.99
75692;BME280;64307;52.508;6.090;2022-10-17T03:18:54;101574.22;;;13.87;95.94
75692;BME280;64307;52.508;6.090;2022-10-17T03:21:19;101571.81;;;13.85;96.01
75692;BME280;64307;52.508;6.090;2022-10-17T03:23:45;101567.41;;;13.88;96.22
75692;BME280;64307;52.508;6.090;2022-10-17T03:26:10;101564.63;;;13.84;95.87
75692;BME280;64307;52.508;6.090;2022-10-17T03:28:36;101567.03;;;13.82;96.26
75692;BME280;64307;52.508;6.090;2022-10-17T03:31:13;101567.81;;;13.86;96.36
75692;BME280;64307;52.508;6.090;2022-10-17T03:33:39;101571.00;;;13.88;96.32
75692;BME280;64307;52.508;6.090;2022-10-17T03:36:07;101580.59;;;13.98;95.73
75692;BME280;64307;52.508;6.090;2022-10-17T03:38:33;101577.41;;;13.92;96.09
75692;BME280;64307;52.508;6.090;2022-10-17T03:40:59;101590.19;;;14.01;95.82
75692;BME280;64307;52.508;6.090;2022-10-17T03:43:25;101581.78;;;14.01;96.30
75692;BME280;64307;52.508;6.090;2022-10-17T03:45:51;101590.19;;;14.08;95.83
75692;BME280;64307;52.508;6.090;2022-10-17T03:48:16;101584.97;;;14.06;95.76
75692;BME280;64307;52.508;6.090;2022-10-17T03:50:41;101591.38;;;14.07;96.01
75692;BME280;64307;52.508;6.090;2022-10-17T03:53:07;101589.41;;;14.07;96.03
75692;BME280;64307;52.508;6.090;2022-10-17T03:55:32;101594.97;;;14.11;95.99
75692;BME280;64307;52.508;6.090;2022-10-17T03:57:57;101596.56;;;14.26;95.83
75692;BME280;64307;52.508;6.090;2022-10-17T04:00:24;101592.56;;;14.13;95.81
75692;BME280;64307;52.508;6.090;2022-10-17T04:02:49;101590.59;;;14.13;95.97
75692;BME280;64307;52.508;6.090;2022-10-17T04:05:14;101583.78;;;14.11;96.20
75692;BME280;64307;52.508;6.090;2022-10-17T04:07:39;101580.97;;;14.18;96.54
75692;BME280;64307;52.508;6.090;2022-10-17T04:10:05;101578.16;;;14.14;96.42
75692;BME280;64307;52.508;6.090;2022-10-17T04:12:30;101594.97;;;14.14;96.36
75692;BME280;64307;52.508;6.090;2022-10-17T04:14:56;101589.78;;;14.20;95.99
75692;BME280;64307;52.508;6.090;2022-10-17T04:17:21;101605.41;;;14.14;96.30
75692;BME280;64307;52.508;6.090;2022-10-17T04:19:48;101586.56;;;14.11;96.48
75692;BME280;64307;52.508;6.090;2022-10-17T04:22:13;101598.59;;;14.18;96.35
75692;BME280;64307;52.508;6.090;2022-10-17T04:24:39;101594.59;;;14.16;96.27
75692;BME280;64307;52.508;6.090;2022-10-17T04:27:04;101595.38;;;14.23;96.49
75692;BME280;64307;52.508;6.090;2022-10-17T04:29:29;101591.75;;;14.23;96.53
75692;BME280;64307;52.508;6.090;2022-10-17T04:31:55;101588.19;;;14.22;96.42
75692;BME280;64307;52.508;6.090;2022-10-17T04:34:20;101582.94;;;14.21;96.55
75692;BME280;64307;52.508;6.090;2022-10-17T04:36:45;101582.16;;;14.24;96.46
75692;BME280;64307;52.508;6.090;2022-10-17T04:39:11;101586.19;;;14.30;96.86
75692;BME280;64307;52.508;6.090;2022-10-17T04:41:37;101583.72;;;14.39;96.36
75692;BME280;64307;52.508;6.090;2022-10-17T04:44:02;101583.34;;;14.37;96.11
75692;BME280;64307;52.508;6.090;2022-10-17T04:46:27;101575.72;;;14.41;96.13
75692;BME280;64307;52.508;6.090;2022-10-17T04:48:53;101568.91;;;14.45;96.28
75692;BME280;64307;52.508;6.090;2022-10-17T04:51:18;101568.09;;;14.52;96.43
75692;BME280;64307;52.508;6.090;2022-10-17T04:53:44;101584.50;;;14.53;96.06
75692;BME280;64307;52.508;6.090;2022-10-17T04:56:14;101588.50;;;14.56;95.93
75692;BME280;64307;52.508;6.090;2022-10-17T04:58:42;101586.06;;;14.65;95.62
75692;BME280;64307;52.508;6.090;2022-10-17T05:01:10;101576.47;;;14.62;95.75
75692;BME280;64307;52.508;6.090;2022-10-17T05:03:36;101585.66;;;14.63;96.04
75692;BME280;64307;52.508;6.090;2022-10-17T05:06:06;101578.03;;;14.63;95.96
75692;BME280;64307;52.508;6.090;2022-10-17T05:08:32;101586.00;;;14.79;95.34
75692;BME280;64307;52.508;6.090;2022-10-17T05:10:59;101590.00;;;14.82;95.21
75692;BME280;64307;52.508;6.090;2022-10-17T05:13:24;101589.59;;;14.83;95.38
75692;BME280;64307;52.508;6.090;2022-10-17T05:15:50;101591.16;;;14.84;95.53
75692;BME280;64307;52.508;6.090;2022-10-17T05:18:15;101598.75;;;14.94;95.38
75692;BME280;64307;52.508;6.090;2022-10-17T05:20:40;101598.38;;;14.89;95.53
75692;BME280;64307;52.508;6.090;2022-10-17T05:23:05;101602.28;;;15.05;94.96
75692;BME280;64307;52.508;6.090;2022-10-17T05:25:31;101597.47;;;15.09;94.74
75692;BME280;64307;52.508;6.090;2022-10-17T05:27:56;101608.28;;;15.07;94.20
75692;BME280;64307;52.508;6.090;2022-10-17T05:30:21;101612.38;;;14.92;95.03
75692;BME280;64307;52.508;6.090;2022-10-17T05:32:47;101610.34;;;15.00;95.18
75692;BME280;64307;52.508;6.090;2022-10-17T05:35:12;101621.59;;;14.93;95.40
75692;BME280;64307;52.508;6.090;2022-10-17T05:37:37;101611.91;;;15.08;95.05
75692;BME280;64307;52.508;6.090;2022-10-17T05:40:03;101619.13;;;15.05;94.77
75692;BME280;64307;52.508;6.090;2022-10-17T05:42:28;101619.97;;;15.02;94.97
75692;BME280;64307;52.508;6.090;2022-10-17T05:44:54;101619.19;;;14.91;95.40
75692;BME280;64307;52.508;6.090;2022-10-17T05:47:20;101621.97;;;14.95;95.38
75692;BME280;64307;52.508;6.090;2022-10-17T05:49:45;101630.38;;;14.95;95.30
75692;BME280;64307;52.508;6.090;2022-10-17T05:52:10;101632.00;;;14.96;95.02
75692;BME280;64307;52.508;6.090;2022-10-17T05:54:36;101618.38;;;14.91;95.21
75692;BME280;64307;52.508;6.090;2022-10-17T05:57:01;101624.44;;;14.86;95.73
75692;BME280;64307;52.508;6.090;2022-10-17T05:59:26;101626.81;;;14.87;95.05
75692;BME280;64307;52.508;6.090;2022-10-17T06:01:52;101634.81;;;14.92;95.23
75692;BME280;64307;52.508;6.090;2022-10-17T06:04:18;101629.19;;;14.92;95.47
75692;BME280;64307;52.508;6.090;2022-10-17T06:06:43;101639.63;;;14.95;95.03
75692;BME280;64307;52.508;6.090;2022-10-17T06:09:08;101642.38;;;14.99;94.93
75692;BME280;64307;52.508;6.090;2022-10-17T06:11:34;101640.41;;;14.99;94.84
75692;BME280;64307;52.508;6.090;2022-10-17T06:14:00;101642.44;;;14.88;95.31
75692;BME280;64307;52.508;6.090;2022-10-17T06:16:25;101641.22;;;14.93;95.21
75692;BME280;64307;52.508;6.090;2022-10-17T06:18:51;101644.47;;;14.88;95.43
75692;BME280;64307;52.508;6.090;2022-10-17T06:21:22;101635.59;;;14.93;95.10
75692;BME280;64307;52.508;6.090;2022-10-17T06:23:47;101640.78;;;15.01;95.30
75692;BME280;64307;52.508;6.090;2022-10-17T06:26:13;101627.50;;;15.12;94.74
75692;BME280;64307;52.508;6.090;2022-10-17T06:28:38;101625.91;;;15.11;94.69
75692;BME280;64307;52.508;6.090;2022-10-17T06:31:06;101630.75;;;15.04;94.94
75692;BME280;64307;52.508;6.090;2022-10-17T06:33:32;101628.25;;;15.20;94.63
75692;BME280;64307;52.508;6.090;2022-10-17T06:35:57;101629.88;;;15.17;94.88
75692;BME280;64307;52.508;6.090;2022-10-17T06:38:23;101638.69;;;15.19;94.45
75692;BME280;64307;52.508;6.090;2022-10-17T06:40:48;101637.88;;;15.22;94.67
75692;BME280;64307;52.508;6.090;2022-10-17T06:43:14;101632.97;;;15.33;94.31
75692;BME280;64307;52.508;6.090;2022-10-17T06:45:39;101650.19;;;15.49;93.83
75692;BME280;64307;52.508;6.090;2022-10-17T06:48:05;101654.53;;;15.54;93.45
75692;BME280;64307;52.508;6.090;2022-10-17T06:50:32;101652.91;;;15.60;93.26
75692;BME280;64307;52.508;6.090;2022-10-17T06:52:57;101658.44;;;15.71;92.85
75692;BME280;64307;52.508;6.090;2022-10-17T06:55:22;101663.63;;;15.76;92.34
75692;BME280;64307;52.508;6.090;2022-10-17T06:57:47;101669.56;;;15.88;91.79
75692;BME280;64307;52.508;6.090;2022-10-17T07:00:13;101661.44;;;15.97;91.53
75692;BME280;64307;52.508;6.090;2022-10-17T07:02:38;101665.31;;;16.14;90.94
75692;BME280;64307;52.508;6.090;2022-10-17T07:05:04;101665.59;;;16.26;90.14
75692;BME280;64307;52.508;6.090;2022-10-17T07:07:30;101665.16;;;16.31;90.05
75692;BME280;64307;52.508;6.090;2022-10-17T07:09:56;101675.50;;;16.42;89.26
75692;BME280;64307;52.508;6.090;2022-10-17T07:12:22;101685.47;;;16.46;89.05
75692;BME280;64307;52.508;6.090;2022-10-17T07:14:49;101688.28;;;16.53;89.06
75692;BME280;64307;52.508;6.090;2022-10-17T07:17:15;101700.66;;;16.59;88.76
75692;BME280;64307;52.508;6.090;2022-10-17T07:19:41;101694.59;;;16.61;88.75
75692;BME280;64307;52.508;6.090;2022-10-17T07:22:08;101698.06;;;16.75;88.12
75692;BME280;64307;52.508;6.090;2022-10-17T07:24:33;101691.31;;;16.69;88.29
75692;BME280;64307;52.508;6.090;2022-10-17T07:26:58;101697.97;;;16.45;89.17
75692;BME280;64307;52.508;6.090;2022-10-17T07:29:23;101699.28;;;16.33;90.13
75692;BME280;64307;52.508;6.090;2022-10-17T07:31:49;101708.13;;;16.32;90.32
75692;BME280;64307;52.508;6.090;2022-10-17T07:34:16;101710.97;;;16.28;90.55
75692;BME280;64307;52.508;6.090;2022-10-17T07:36:41;101714.63;;;16.25;90.66
75692;BME280;64307;52.508;6.090;2022-10-17T07:39:06;101722.25;;;16.21;91.06
75692;BME280;64307;52.508;6.090;2022-10-17T07:41:32;101729.19;;;16.10;91.60
75692;BME280;64307;52.508;6.090;2022-10-17T07:43:57;101724.78;;;16.09;91.93
75692;BME280;64307;52.508;6.090;2022-10-17T07:46:22;101728.00;;;16.11;91.54
75692;BME280;64307;52.508;6.090;2022-10-17T07:48:49;101743.19;;;16.13;91.77
75692;BME280;64307;52.508;6.090;2022-10-17T07:51:15;101734.78;;;16.17;91.31
75692;BME280;64307;52.508;6.090;2022-10-17T07:53:41;101746.41;;;16.19;91.39
75692;BME280;64307;52.508;6.090;2022-10-17T07:56:08;101739.63;;;16.13;91.83
75692;BME280;64307;52.508;6.090;2022-10-17T07:58:35;101716.72;;;16.14;92.15
75692;BME280;64307;52.508;6.090;2022-10-17T08:01:06;101723.94;;;16.12;91.99
75692;BME280;64307;52.508;6.090;2022-10-17T08:03:32;101713.94;;;16.11;92.36
75692;BME280;64307;52.508;6.090;2022-10-17T08:05:59;101713.06;;;16.17;91.83
75692;BME280;64307;52.508;6.090;2022-10-17T08:08:25;101709.41;;;16.24;91.68
75692;BME280;64307;52.508;6.090;2022-10-17T08:10:51;101696.94;;;16.25;91.57
75692;BME280;64307;52.508;6.090;2022-10-17T08:13:16;101698.97;;;16.24;91.36
75692;BME280;64307;52.508;6.090;2022-10-17T08:15:42;101710.94;;;16.32;91.08
75692;BME280;64307;52.508;6.090;2022-10-17T08:18:07;101745.53;;;16.25;91.31
75692;BME280;64307;52.508;6.090;2022-10-17T08:20:32;101760.00;;;16.24;91.94
75692;BME280;64307;52.508;6.090;2022-10-17T08:22:57;101758.78;;;16.25;91.64
75692;BME280;64307;52.508;6.090;2022-10-17T08:25:23;101754.38;;;16.27;91.44
75692;BME280;64307;52.508;6.090;2022-10-17T08:27:49;101769.97;;;16.35;91.57
75692;BME280;64307;52.508;6.090;2022-10-17T08:30:14;101779.97;;;16.36;91.35
75692;BME280;64307;52.508;6.090;2022-10-17T08:32:40;101792.03;;;16.37;91.73
75692;BME280;64307;52.508;6.090;2022-10-17T08:35:05;101820.16;;;16.37;91.66
75692;BME280;64307;52.508;6.090;2022-10-17T08:37:31;101843.38;;;16.45;91.48
75692;BME280;64307;52.508;6.090;2022-10-17T08:39:56;101843.84;;;16.39;91.88
75692;BME280;64307;52.508;6.090;2022-10-17T08:48:01;101865.16;;;16.33;92.14
75692;BME280;64307;52.508;6.090;2022-10-17T08:50:40;101867.88;;;16.44;91.88
75692;BME280;64307;52.508;6.090;2022-10-17T08:53:18;101871.50;;;16.52;91.80
75692;BME280;64307;52.508;6.090;2022-10-17T08:55:47;101875.78;;;16.67;91.22
75692;BME280;64307;52.508;6.090;2022-10-17T08:58:19;101880.13;;;16.78;91.11
75692;BME280;64307;52.508;6.090;2022-10-17T09:03:51;101898.03;;;16.98;91.59
75692;BME280;64307;52.508;6.090;2022-10-17T09:06:24;101905.75;;;16.87;92.22
75692;BME280;64307;52.508;6.090;2022-10-17T09:12:19;101901.28;;;16.97;93.04
75692;BME280;64307;52.508;6.090;2022-10-17T09:15:28;101891.25;;;16.92;93.46
75692;BME280;64307;52.508;6.090;2022-10-17T09:18:00;101877.56;;;16.94;93.26
75692;BME280;64307;52.508;6.090;2022-10-17T09:20:35;101871.56;;;16.92;93.53
75692;BME280;64307;52.508;6.090;2022-10-17T09:23:20;101894.88;;;16.89;93.63
75692;BME280;64307;52.508;6.090;2022-10-17T09:25:51;101890.53;;;16.81;94.20
75692;BME280;64307;52.508;6.090;2022-10-17T09:30:45;101899.81;;;16.78;94.51
75692;BME280;64307;52.508;6.090;2022-10-17T09:33:12;101894.63;;;16.73;94.80
75692;BME280;64307;52.508;6.090;2022-10-17T09:35:39;101898.66;;;16.72;94.77
75692;BME280;64307;52.508;6.090;2022-10-17T09:38:10;101901.09;;;16.67;95.20
75692;BME280;64307;52.508;6.090;2022-10-17T09:40:39;101888.59;;;16.71;95.19
75692;BME280;64307;52.508;6.090;2022-10-17T09:43:06;101875.38;;;16.68;95.12
75692;BME280;64307;52.508;6.090;2022-10-17T09:45:37;101870.91;;;16.74;95.04
75692;BME280;64307;52.508;6.090;2022-10-17T09:48:20;101843.16;;;16.76;94.75
75692;BME280;64307;52.508;6.090;2022-10-17T09:50:47;101848.78;;;16.76;94.48
75692;BME280;64307;52.508;6.090;2022-10-17T09:53:26;101874.91;;;16.77;94.85
75692;BME280;64307;52.508;6.090;2022-10-17T09:55:57;101879.31;;;16.78;94.96
75692;BME280;64307;52.508;6.090;2022-10-17T09:58:39;101882.56;;;16.76;95.11
75692;BME280;64307;52.508;6.090;2022-10-17T10:01:16;101893.84;;;16.69;95.58
75692;BME280;64307;52.508;6.090;2022-10-17T10:03:41;101905.56;;;16.64;95.59
75692;BME280;64307;52.508;6.090;2022-10-17T10:06:16;101915.22;;;16.60;95.82
75692;BME280;64307;52.508;6.090;2022-10-17T10:08:56;101936.94;;;16.56;96.36
75692;BME280;64307;52.508;6.090;2022-10-17T10:14:14;101926.50;;;16.56;96.12
75692;BME280;64307;52.508;6.090;2022-10-17T10:16:44;101929.28;;;16.60;96.33
75692;BME280;64307;52.508;6.090;2022-10-17T10:19:31;101938.53;;;16.60;96.20
75692;BME280;64307;52.508;6.090;2022-10-17T10:22:05;101920.47;;;16.58;96.36
75692;BME280;64307;52.508;6.090;2022-10-17T10:24:31;101899.94;;;16.61;96.31
75692;BME280;64307;52.508;6.090;2022-10-17T10:26:59;101882.28;;;16.60;96.46
75692;BME280;64307;52.508;6.090;2022-10-17T10:29:34;101878.25;;;16.61;96.61
75692;BME280;64307;52.508;6.090;2022-10-17T10:32:17;101873.38;;;16.65;96.32
75692;BME280;64307;52.508;6.090;2022-10-17T10:34:48;101885.78;;;16.71;96.03
75692;BME280;64307;52.508;6.090;2022-10-17T10:37:26;101903.53;;;16.68;95.97
75692;BME280;64307;52.508;6.090;2022-10-17T10:39:56;101913.94;;;16.71;95.88
75692;BME280;64307;52.508;6.090;2022-10-17T10:42:45;101934.03;;;16.70;96.20
75692;BME280;64307;52.508;6.090;2022-10-17T10:45:16;101935.66;;;16.67;96.24
75692;BME280;64307;52.508;6.090;2022-10-17T10:48:00;101950.94;;;16.63;96.62
75692;BME280;64307;52.508;6.090;2022-10-17T10:55:47;101953.00;;;16.62;97.00
75692;BME280;64307;52.508;6.090;2022-10-17T10:58:39;101959.41;;;16.66;96.51
75692;BME280;64307;52.508;6.090;2022-10-17T11:01:14;101962.19;;;16.70;96.27
75692;BME280;64307;52.508;6.090;2022-10-17T11:03:51;101979.09;;;16.66;96.38
75692;BME280;64307;52.508;6.090;2022-10-17T11:06:20;101983.50;;;16.64;96.67
75692;BME280;64307;52.508;6.090;2022-10-17T11:08:51;101981.91;;;16.66;96.89
75692;BME280;64307;52.508;6.090;2022-10-17T11:14:36;101987.81;;;16.82;95.58
75692;BME280;64307;52.508;6.090;2022-10-17T11:19:55;101997.84;;;16.87;95.26
75692;BME280;64307;52.508;6.090;2022-10-17T11:22:28;102007.81;;;16.98;95.33
75692;BME280;64307;52.508;6.090;2022-10-17T11:25:03;102011.31;;;17.13;94.52
75692;BME280;64307;52.508;6.090;2022-10-17T11:27:29;102015.66;;;17.25;94.08
75692;BME280;64307;52.508;6.090;2022-10-17T11:29:56;102013.88;;;17.45;92.96
75692;BME280;64307;52.508;6.090;2022-10-17T11:32:29;102017.09;;;17.50;92.66
75692;BME280;64307;52.508;6.090;2022-10-17T11:35:16;102023.91;;;17.53;92.44
75692;BME280;64307;52.508;6.090;2022-10-17T11:37:49;102021.75;;;17.67;92.25
75692;BME280;64307;52.508;6.090;2022-10-17T11:40:21;102029.78;;;17.69;92.35
75692;BME280;64307;52.508;6.090;2022-10-17T11:43:01;102027.41;;;17.64;92.27
75692;BME280;64307;52.508;6.090;2022-10-17T11:45:32;102016.63;;;17.59;92.56
75692;BME280;64307;52.508;6.090;2022-10-17T11:48:05;102024.84;;;17.80;91.98
75692;BME280;64307;52.508;6.090;2022-10-17T11:50:38;102029.50;;;17.97;91.14
75692;BME280;64307;52.508;6.090;2022-10-17T11:55:33;102031.09;;;17.98;90.30
75692;BME280;64307;52.508;6.090;2022-10-17T11:58:29;102018.59;;;17.99;90.80
75692;BME280;64307;52.508;6.090;2022-10-17T12:03:59;102041.84;;;17.73;92.35
75692;BME280;64307;52.508;6.090;2022-10-17T12:06:41;102041.25;;;17.88;91.74
75692;BME280;64307;52.508;6.090;2022-10-17T12:09:19;102040.84;;;17.90;91.57
75692;BME280;64307;52.508;6.090;2022-10-17T12:11:56;102038.81;;;17.90;91.39
75692;BME280;64307;52.508;6.090;2022-10-17T12:14:42;102048.66;;;17.72;92.12
75692;BME280;64307;52.508;6.090;2022-10-17T12:17:43;102049.53;;;17.69;91.88
75692;BME280;64307;52.508;6.090;2022-10-17T12:22:50;102050.53;;;17.41;92.84
75692;BME280;64307;52.508;6.090;2022-10-17T12:25:21;102044.16;;;17.34;93.26
75692;BME280;64307;52.508;6.090;2022-10-17T12:27:48;102047.00;;;17.27;93.36
75692;BME280;64307;52.508;6.090;2022-10-17T12:30:20;102043.81;;;17.25;93.59
75692;BME280;64307;52.508;6.090;2022-10-17T12:32:56;102042.97;;;17.31;93.59
75692;BME280;64307;52.508;6.090;2022-10-17T12:35:24;102043.69;;;17.39;92.91
75692;BME280;64307;52.508;6.090;2022-10-17T12:43:00;102045.16;;;17.61;92.23
75692;BME280;64307;52.508;6.090;2022-10-17T12:45:54;102057.22;;;17.65;91.79
75692;BME280;64307;52.508;6.090;2022-10-17T12:54:15;102063.75;;;17.48;92.45
75692;BME280;64307;52.508;6.090;2022-10-17T12:56:46;102063.03;;;17.37;93.00
75692;BME280;64307;52.508;6.090;2022-10-17T12:59:17;102060.59;;;17.39;92.84
75692;BME280;64307;52.508;6.090;2022-10-17T13:01:46;102060.59;;;17.39;93.37
75692;BME280;64307;52.508;6.090;2022-10-17T13:04:12;102065.03;;;17.40;93.21
75692;BME280;64307;52.508;6.090;2022-10-17T13:06:47;102065.31;;;17.56;92.26
75692;BME280;64307;52.508;6.090;2022-10-17T13:09:23;102074.63;;;17.53;92.85
75692;BME280;64307;52.508;6.090;2022-10-17T13:11:49;102077.44;;;17.46;92.78
75692;BME280;64307;52.508;6.090;2022-10-17T13:14:17;102077.91;;;17.37;93.19
75692;BME280;64307;52.508;6.090;2022-10-17T13:16:53;102083.53;;;17.37;92.99
75692;BME280;64307;52.508;6.090;2022-10-17T13:19:21;102091.66;;;17.28;93.66
75692;BME280;64307;52.508;6.090;2022-10-17T13:22:01;102102.63;;;17.08;93.58
75692;BME280;64307;52.508;6.090;2022-10-17T13:24:29;102109.16;;;16.91;94.33
75692;BME280;64307;52.508;6.090;2022-10-17T13:26:56;102119.31;;;16.75;94.00
75692;BME280;64307;52.508;6.090;2022-10-17T13:29:21;102120.53;;;16.70;93.95
75692;BME280;64307;52.508;6.090;2022-10-17T13:32:00;102109.34;;;16.49;93.34
75692;BME280;64307;52.508;6.090;2022-10-17T13:34:29;102114.97;;;16.46;93.84
75692;BME280;64307;52.508;6.090;2022-10-17T13:36:58;102116.97;;;16.34;93.96
75692;BME280;64307;52.508;6.090;2022-10-17T13:39:27;102122.63;;;16.31;93.92
75692;BME280;64307;52.508;6.090;2022-10-17T13:41:55;102125.44;;;16.20;93.68
75692;BME280;64307;52.508;6.090;2022-10-17T13:44:25;102135.50;;;16.18;94.10
75692;BME280;64307;52.508;6.090;2022-10-17T13:46:52;102148.75;;;16.10;93.54
75692;BME280;64307;52.508;6.090;2022-10-17T13:51:48;102163.63;;;15.90;94.48
75692;BME280;64307;52.508;6.090;2022-10-17T13:56:54;102155.19;;;15.93;94.97
75692;BME280;64307;52.508;6.090;2022-10-17T13:59:36;102162.81;;;15.93;94.98
75692;BME280;64307;52.508;6.090;2022-10-17T14:02:02;102175.25;;;15.95;95.04
75692;BME280;64307;52.508;6.090;2022-10-17T14:04:27;102170.06;;;15.90;94.96
75692;BME280;64307;52.508;6.090;2022-10-17T14:06:53;102165.63;;;15.93;95.04
75692;BME280;64307;52.508;6.090;2022-10-17T14:09:24;102164.03;;;15.99;94.98